sensor_id;sensor_type;location;lat;lon;timestamp;P1;durP1;ratioP1;P2;durP2;ratioP2
74245;SDS011;62601;51.044;13.788;2024-03-08T00:00:40;25.67;;;18.15;;
74245;SDS011;62601;51.044;13.788;2024-03-08T00:03:00;27.05;;;18.95;;
74245;SDS011;62601;51.044;13.788;2024-03-08T00:05:20;29.92;;;19.75;;
74245;SDS011;62601;51.044;13.788;2024-03-08T00:07:42;30.42;;;19.85;;
74245;SDS011;62601;51.044;13.788;2024-03-08T00:10:02;31.88;;;20.17;;
74245;SDS011;62601;51.044;13.788;2024-03-08T00:12:24;34.33;;;20.98;;
74245;SDS011;62601;51.044;13.788;2024-03-08T00:14:44;32.55;;;20.42;;
74245;SDS011;62601;51.044;13.788;2024-03-08T00:17:06;35.65;;;21.38;;
74245;SDS011;62601;51.044;13.788;2024-03-08T00:19:26;31.10;;;19.90;;
74245;SDS011;62601;51.044;13.788;2024-03-08T00:21:46;31.98;;;20.73;;
74245;SDS011;62601;51.044;13.788;2024-03-08T00:24:06;33.80;;;20.40;;
74245;SDS011;62601;51.044;13.788;2024-03-08T00:26:26;30.02;;;19.90;;
74245;SDS011;62601;51.044;13.788;2024-03-08T00:28:46;36.05;;;21.88;;
74245;SDS011;62601;51.044;13.788;2024-03-08T00:31:07;32.15;;;19.15;;
74245;SDS011;62601;51.044;13.788;2024-03-08T00:33:27;34.38;;;21.00;;
74245;SDS011;62601;51.044;13.788;2024-03-08T00:35:47;33.08;;;20.52;;
74245;SDS011;62601;51.044;13.788;2024-03-08T00:38:07;34.10;;;20.40;;
74245;SDS011;62601;51.044;13.788;2024-03-08T00:40:27;35.55;;;21.63;;
74245;SDS011;62601;51.044;13.788;2024-03-08T00:42:48;31.50;;;19.50;;
74245;SDS011;62601;51.044;13.788;2024-03-08T00:45:10;36.55;;;20.58;;
74245;SDS011;62601;51.044;13.788;2024-03-08T00:47:31;34.88;;;20.92;;
74245;SDS011;62601;51.044;13.788;2024-03-08T00:49:51;31.08;;;20.80;;
74245;SDS011;62601;51.044;13.788;2024-03-08T00:52:11;33.47;;;21.00;;
74245;SDS011;62601;51.044;13.788;2024-03-08T00:54:33;34.05;;;21.13;;
74245;SDS011;62601;51.044;13.788;2024-03-08T00:56:55;31.52;;;19.98;;
74245;SDS011;62601;51.044;13.788;2024-03-08T00:59:15;30.00;;;20.05;;
74245;SDS011;62601;51.044;13.788;2024-03-08T01:01:36;34.60;;;22.27;;
74245;SDS011;62601;51.044;13.788;2024-03-08T01:03:57;30.95;;;20.88;;
74245;SDS011;62601;51.044;13.788;2024-03-08T01:06:17;32.63;;;20.70;;
74245;SDS011;62601;51.044;13.788;2024-03-08T01:08:37;29.20;;;19.38;;
74245;SDS011;62601;51.044;13.788;2024-03-08T01:10:59;28.33;;;18.85;;
74245;SDS011;62601;51.044;13.788;2024-03-08T01:13:20;32.78;;;19.98;;
74245;SDS011;62601;51.044;13.788;2024-03-08T01:15:41;33.60;;;20.65;;
74245;SDS011;62601;51.044;13.788;2024-03-08T01:18:03;33.55;;;20.90;;
74245;SDS011;62601;51.044;13.788;2024-03-08T01:20:23;32.03;;;20.55;;
74245;SDS011;62601;51.044;13.788;2024-03-08T01:22:43;36.75;;;20.95;;
74245;SDS011;62601;51.044;13.788;2024-03-08T01:25:04;34.15;;;20.67;;
74245;SDS011;62601;51.044;13.788;2024-03-08T01:27:26;35.05;;;21.08;;
74245;SDS011;62601;51.044;13.788;2024-03-08T01:29:47;35.33;;;20.63;;
74245;SDS011;62601;51.044;13.788;2024-03-08T01:32:08;33.95;;;21.67;;
74245;SDS011;62601;51.044;13.788;2024-03-08T01:34:28;30.58;;;19.92;;
74245;SDS011;62601;51.044;13.788;2024-03-08T01:36:51;31.13;;;20.27;;
74245;SDS011;62601;51.044;13.788;2024-03-08T01:39:12;36.55;;;22.58;;
74245;SDS011;62601;51.044;13.788;2024-03-08T01:41:34;34.17;;;21.50;;
74245;SDS011;62601;51.044;13.788;2024-03-08T01:43:54;30.38;;;20.50;;
74245;SDS011;62601;51.044;13.788;2024-03-08T01:46:16;35.63;;;22.77;;
74245;SDS011;62601;51.044;13.788;2024-03-08T01:48:39;36.17;;;22.70;;
74245;SDS011;62601;51.044;13.788;2024-03-08T01:51:00;36.08;;;22.40;;
74245;SDS011;62601;51.044;13.788;2024-03-08T01:53:20;32.85;;;21.75;;
74245;SDS011;62601;51.044;13.788;2024-03-08T01:55:40;34.03;;;21.25;;
74245;SDS011;62601;51.044;13.788;2024-03-08T01:58:03;32.15;;;21.83;;
74245;SDS011;62601;51.044;13.788;2024-03-08T02:00:25;35.53;;;21.42;;
74245;SDS011;62601;51.044;13.788;2024-03-08T02:02:47;36.00;;;21.70;;
74245;SDS011;62601;51.044;13.788;2024-03-08T02:05:10;36.15;;;20.90;;
74245;SDS011;62601;51.044;13.788;2024-03-08T02:07:32;31.70;;;20.40;;
74245;SDS011;62601;51.044;13.788;2024-03-08T02:09:53;33.58;;;20.58;;
74245;SDS011;62601;51.044;13.788;2024-03-08T02:12:13;36.05;;;20.83;;
74245;SDS011;62601;51.044;13.788;2024-03-08T02:14:35;33.88;;;21.38;;
74245;SDS011;62601;51.044;13.788;2024-03-08T02:17:02;30.80;;;20.15;;
74245;SDS011;62601;51.044;13.788;2024-03-08T02:19:23;31.90;;;20.70;;
74245;SDS011;62601;51.044;13.788;2024-03-08T02:21:45;33.35;;;21.15;;
74245;SDS011;62601;51.044;13.788;2024-03-08T02:24:06;33.05;;;21.00;;
74245;SDS011;62601;51.044;13.788;2024-03-08T02:26:26;33.92;;;21.50;;
74245;SDS011;62601;51.044;13.788;2024-03-08T02:28:46;35.72;;;21.90;;
74245;SDS011;62601;51.044;13.788;2024-03-08T02:31:08;33.22;;;21.15;;
74245;SDS011;62601;51.044;13.788;2024-03-08T02:33:29;33.45;;;20.63;;
74245;SDS011;62601;51.044;13.788;2024-03-08T02:35:49;32.55;;;21.52;;
74245;SDS011;62601;51.044;13.788;2024-03-08T02:38:12;31.83;;;21.45;;
74245;SDS011;62601;51.044;13.788;2024-03-08T02:40:37;30.30;;;19.67;;
74245;SDS011;62601;51.044;13.788;2024-03-08T02:42:57;34.88;;;21.67;;
74245;SDS011;62601;51.044;13.788;2024-03-08T02:45:17;34.55;;;21.48;;
74245;SDS011;62601;51.044;13.788;2024-03-08T02:47:37;33.67;;;21.40;;
74245;SDS011;62601;51.044;13.788;2024-03-08T02:49:59;39.72;;;22.05;;
74245;SDS011;62601;51.044;13.788;2024-03-08T02:52:20;29.92;;;18.50;;
74245;SDS011;62601;51.044;13.788;2024-03-08T02:54:41;35.60;;;20.08;;
74245;SDS011;62601;51.044;13.788;2024-03-08T02:57:03;32.33;;;20.17;;
74245;SDS011;62601;51.044;13.788;2024-03-08T02:59:27;32.05;;;21.20;;
74245;SDS011;62601;51.044;13.788;2024-03-08T03:01:49;33.08;;;21.42;;
74245;SDS011;62601;51.044;13.788;2024-03-08T03:04:10;34.67;;;20.25;;
74245;SDS011;62601;51.044;13.788;2024-03-08T03:06:30;32.78;;;20.27;;
74245;SDS011;62601;51.044;13.788;2024-03-08T03:08:50;33.28;;;19.77;;
74245;SDS011;62601;51.044;13.788;2024-03-08T03:11:12;30.73;;;20.45;;
74245;SDS011;62601;51.044;13.788;2024-03-08T03:13:33;30.73;;;18.98;;
74245;SDS011;62601;51.044;13.788;2024-03-08T03:15:53;31.38;;;20.00;;
74245;SDS011;62601;51.044;13.788;2024-03-08T03:18:16;28.15;;;19.35;;
74245;SDS011;62601;51.044;13.788;2024-03-08T03:20:36;36.78;;;22.67;;
74245;SDS011;62601;51.044;13.788;2024-03-08T03:22:56;32.20;;;20.27;;
74245;SDS011;62601;51.044;13.788;2024-03-08T03:25:17;32.30;;;19.17;;
74245;SDS011;62601;51.044;13.788;2024-03-08T03:27:38;35.35;;;20.83;;
74245;SDS011;62601;51.044;13.788;2024-03-08T03:30:01;31.92;;;19.75;;
74245;SDS011;62601;51.044;13.788;2024-03-08T03:32:21;40.60;;;20.50;;
74245;SDS011;62601;51.044;13.788;2024-03-08T03:34:41;32.38;;;20.25;;
74245;SDS011;62601;51.044;13.788;2024-03-08T03:37:02;33.22;;;20.25;;
74245;SDS011;62601;51.044;13.788;2024-03-08T03:39:22;32.30;;;19.75;;
74245;SDS011;62601;51.044;13.788;2024-03-08T03:41:43;37.13;;;22.27;;
74245;SDS011;62601;51.044;13.788;2024-03-08T03:44:03;32.28;;;19.55;;
74245;SDS011;62601;51.044;13.788;2024-03-08T03:46:25;33.35;;;20.77;;
74245;SDS011;62601;51.044;13.788;2024-03-08T03:48:46;33.90;;;20.23;;
74245;SDS011;62601;51.044;13.788;2024-03-08T03:51:07;31.98;;;20.65;;
74245;SDS011;62601;51.044;13.788;2024-03-08T03:53:31;31.05;;;21.00;;
74245;SDS011;62601;51.044;13.788;2024-03-08T03:55:52;29.70;;;19.58;;
74245;SDS011;62601;51.044;13.788;2024-03-08T03:58:12;26.08;;;18.67;;
74245;SDS011;62601;51.044;13.788;2024-03-08T04:00:32;29.60;;;19.35;;
74245;SDS011;62601;51.044;13.788;2024-03-08T04:02:52;34.97;;;20.58;;
74245;SDS011;62601;51.044;13.788;2024-03-08T04:05:12;27.75;;;18.77;;
74245;SDS011;62601;51.044;13.788;2024-03-08T04:07:33;31.45;;;19.80;;
74245;SDS011;62601;51.044;13.788;2024-03-08T04:09:54;31.35;;;19.58;;
74245;SDS011;62601;51.044;13.788;2024-03-08T04:12:15;33.13;;;19.88;;
74245;SDS011;62601;51.044;13.788;2024-03-08T04:14:37;32.30;;;19.40;;
74245;SDS011;62601;51.044;13.788;2024-03-08T04:16:59;31.92;;;18.98;;
74245;SDS011;62601;51.044;13.788;2024-03-08T04:19:19;28.25;;;18.55;;
74245;SDS011;62601;51.044;13.788;2024-03-08T04:21:39;31.52;;;19.05;;
74245;SDS011;62601;51.044;13.788;2024-03-08T04:24:00;29.45;;;19.15;;
74245;SDS011;62601;51.044;13.788;2024-03-08T04:26:20;32.28;;;19.88;;
74245;SDS011;62601;51.044;13.788;2024-03-08T04:28:42;35.38;;;20.23;;
74245;SDS011;62601;51.044;13.788;2024-03-08T04:31:07;34.38;;;19.15;;
74245;SDS011;62601;51.044;13.788;2024-03-08T04:33:29;32.80;;;20.13;;
74245;SDS011;62601;51.044;13.788;2024-03-08T04:35:49;31.50;;;19.35;;
74245;SDS011;62601;51.044;13.788;2024-03-08T04:38:10;33.15;;;18.67;;
74245;SDS011;62601;51.044;13.788;2024-03-08T04:40:31;30.45;;;19.58;;
74245;SDS011;62601;51.044;13.788;2024-03-08T04:42:53;30.42;;;19.83;;
74245;SDS011;62601;51.044;13.788;2024-03-08T04:45:15;38.33;;;19.70;;
74245;SDS011;62601;51.044;13.788;2024-03-08T04:47:36;29.10;;;19.42;;
74245;SDS011;62601;51.044;13.788;2024-03-08T04:49:56;31.77;;;19.90;;
74245;SDS011;62601;51.044;13.788;2024-03-08T04:52:18;30.55;;;19.65;;
74245;SDS011;62601;51.044;13.788;2024-03-08T04:54:38;35.28;;;20.27;;
74245;SDS011;62601;51.044;13.788;2024-03-08T04:56:58;36.13;;;19.80;;
74245;SDS011;62601;51.044;13.788;2024-03-08T04:59:18;30.80;;;19.10;;
74245;SDS011;62601;51.044;13.788;2024-03-08T05:01:40;34.85;;;21.42;;
74245;SDS011;62601;51.044;13.788;2024-03-08T05:04:00;28.77;;;19.05;;
74245;SDS011;62601;51.044;13.788;2024-03-08T05:06:21;33.13;;;19.58;;
74245;SDS011;62601;51.044;13.788;2024-03-08T05:08:43;33.85;;;19.95;;
74245;SDS011;62601;51.044;13.788;2024-03-08T05:11:04;34.10;;;20.23;;
74245;SDS011;62601;51.044;13.788;2024-03-08T05:13:25;34.65;;;21.08;;
74245;SDS011;62601;51.044;13.788;2024-03-08T05:15:49;32.20;;;18.80;;
74245;SDS011;62601;51.044;13.788;2024-03-08T05:18:10;31.67;;;18.80;;
74245;SDS011;62601;51.044;13.788;2024-03-08T05:20:31;34.35;;;18.90;;
74245;SDS011;62601;51.044;13.788;2024-03-08T05:22:53;44.20;;;22.38;;
74245;SDS011;62601;51.044;13.788;2024-03-08T05:25:13;34.65;;;18.83;;
74245;SDS011;62601;51.044;13.788;2024-03-08T05:27:35;31.70;;;19.20;;
74245;SDS011;62601;51.044;13.788;2024-03-08T05:29:56;30.65;;;19.70;;
74245;SDS011;62601;51.044;13.788;2024-03-08T05:32:18;32.33;;;19.90;;
74245;SDS011;62601;51.044;13.788;2024-03-08T05:34:39;33.42;;;19.85;;
74245;SDS011;62601;51.044;13.788;2024-03-08T05:36:59;34.17;;;19.20;;
74245;SDS011;62601;51.044;13.788;2024-03-08T05:39:19;33.38;;;19.77;;
74245;SDS011;62601;51.044;13.788;2024-03-08T05:41:40;37.67;;;21.23;;
74245;SDS011;62601;51.044;13.788;2024-03-08T05:44:00;32.58;;;20.65;;
74245;SDS011;62601;51.044;13.788;2024-03-08T05:46:21;36.65;;;20.27;;
74245;SDS011;62601;51.044;13.788;2024-03-08T05:48:41;34.50;;;20.83;;
74245;SDS011;62601;51.044;13.788;2024-03-08T05:51:01;35.45;;;21.27;;
74245;SDS011;62601;51.044;13.788;2024-03-08T05:53:23;35.83;;;19.83;;
74245;SDS011;62601;51.044;13.788;2024-03-08T05:55:44;39.88;;;21.90;;
74245;SDS011;62601;51.044;13.788;2024-03-08T05:58:05;36.40;;;21.48;;
74245;SDS011;62601;51.044;13.788;2024-03-08T06:00:25;41.15;;;21.50;;
74245;SDS011;62601;51.044;13.788;2024-03-08T06:02:46;35.28;;;21.05;;
74245;SDS011;62601;51.044;13.788;2024-03-08T06:05:08;39.15;;;21.67;;
74245;SDS011;62601;51.044;13.788;2024-03-08T06:07:30;33.97;;;21.27;;
74245;SDS011;62601;51.044;13.788;2024-03-08T06:09:50;33.97;;;20.02;;
74245;SDS011;62601;51.044;13.788;2024-03-08T06:12:11;38.15;;;22.23;;
74245;SDS011;62601;51.044;13.788;2024-03-08T06:14:34;37.65;;;23.17;;
74245;SDS011;62601;51.044;13.788;2024-03-08T06:16:56;35.78;;;22.85;;
74245;SDS011;62601;51.044;13.788;2024-03-08T06:19:17;37.25;;;21.27;;
74245;SDS011;62601;51.044;13.788;2024-03-08T06:21:39;35.28;;;20.50;;
74245;SDS011;62601;51.044;13.788;2024-03-08T06:23:59;35.00;;;20.60;;
74245;SDS011;62601;51.044;13.788;2024-03-08T06:26:19;38.00;;;22.58;;
74245;SDS011;62601;51.044;13.788;2024-03-08T06:28:40;35.75;;;20.85;;
74245;SDS011;62601;51.044;13.788;2024-03-08T06:31:02;34.47;;;20.70;;
74245;SDS011;62601;51.044;13.788;2024-03-08T06:33:22;40.05;;;21.00;;
74245;SDS011;62601;51.044;13.788;2024-03-08T06:35:42;38.05;;;21.05;;
74245;SDS011;62601;51.044;13.788;2024-03-08T06:38:02;35.03;;;20.15;;
74245;SDS011;62601;51.044;13.788;2024-03-08T06:40:22;32.97;;;20.85;;
74245;SDS011;62601;51.044;13.788;2024-03-08T06:42:44;35.72;;;21.75;;
74245;SDS011;62601;51.044;13.788;2024-03-08T06:45:07;33.90;;;21.48;;
74245;SDS011;62601;51.044;13.788;2024-03-08T06:47:28;44.58;;;24.23;;
74245;SDS011;62601;51.044;13.788;2024-03-08T06:49:48;37.50;;;22.67;;
74245;SDS011;62601;51.044;13.788;2024-03-08T06:52:10;37.67;;;21.80;;
74245;SDS011;62601;51.044;13.788;2024-03-08T06:54:31;35.60;;;20.70;;
74245;SDS011;62601;51.044;13.788;2024-03-08T06:56:53;34.95;;;21.50;;
74245;SDS011;62601;51.044;13.788;2024-03-08T06:59:14;39.05;;;23.65;;
74245;SDS011;62601;51.044;13.788;2024-03-08T07:01:34;36.92;;;22.98;;
74245;SDS011;62601;51.044;13.788;2024-03-08T07:03:54;39.35;;;22.73;;
74245;SDS011;62601;51.044;13.788;2024-03-08T07:06:16;40.83;;;22.58;;
74245;SDS011;62601;51.044;13.788;2024-03-08T07:08:36;33.88;;;20.77;;
74245;SDS011;62601;51.044;13.788;2024-03-08T07:10:56;37.95;;;21.88;;
74245;SDS011;62601;51.044;13.788;2024-03-08T07:13:16;37.97;;;22.80;;
74245;SDS011;62601;51.044;13.788;2024-03-08T07:15:36;40.35;;;21.00;;
74245;SDS011;62601;51.044;13.788;2024-03-08T07:17:59;39.47;;;22.05;;
74245;SDS011;62601;51.044;13.788;2024-03-08T07:20:20;37.88;;;21.52;;
74245;SDS011;62601;51.044;13.788;2024-03-08T07:22:42;34.33;;;21.60;;
74245;SDS011;62601;51.044;13.788;2024-03-08T07:25:06;38.97;;;23.33;;
74245;SDS011;62601;51.044;13.788;2024-03-08T07:27:28;39.45;;;22.63;;
74245;SDS011;62601;51.044;13.788;2024-03-08T07:29:49;39.53;;;22.98;;
74245;SDS011;62601;51.044;13.788;2024-03-08T07:32:11;37.15;;;22.80;;
74245;SDS011;62601;51.044;13.788;2024-03-08T07:34:32;32.13;;;20.55;;
74245;SDS011;62601;51.044;13.788;2024-03-08T07:36:53;33.40;;;22.30;;
74245;SDS011;62601;51.044;13.788;2024-03-08T07:39:13;40.08;;;23.83;;
74245;SDS011;62601;51.044;13.788;2024-03-08T07:41:35;37.28;;;22.30;;
74245;SDS011;62601;51.044;13.788;2024-03-08T07:43:56;41.72;;;23.20;;
74245;SDS011;62601;51.044;13.788;2024-03-08T07:46:16;37.72;;;21.23;;
74245;SDS011;62601;51.044;13.788;2024-03-08T07:48:36;41.10;;;23.55;;
74245;SDS011;62601;51.044;13.788;2024-03-08T07:50:56;36.13;;;22.48;;
74245;SDS011;62601;51.044;13.788;2024-03-08T07:53:17;32.22;;;21.38;;
74245;SDS011;62601;51.044;13.788;2024-03-08T07:55:37;42.38;;;23.85;;
74245;SDS011;62601;51.044;13.788;2024-03-08T07:57:57;34.53;;;20.75;;
74245;SDS011;62601;51.044;13.788;2024-03-08T08:00:18;38.75;;;21.85;;
74245;SDS011;62601;51.044;13.788;2024-03-08T08:02:39;38.08;;;22.40;;
74245;SDS011;62601;51.044;13.788;2024-03-08T08:05:02;36.40;;;22.05;;
74245;SDS011;62601;51.044;13.788;2024-03-08T08:07:24;37.40;;;23.13;;
74245;SDS011;62601;51.044;13.788;2024-03-08T08:09:44;40.97;;;22.65;;
74245;SDS011;62601;51.044;13.788;2024-03-08T08:12:04;41.75;;;23.73;;
74245;SDS011;62601;51.044;13.788;2024-03-08T08:14:25;39.15;;;23.20;;
74245;SDS011;62601;51.044;13.788;2024-03-08T08:16:46;35.13;;;22.50;;
74245;SDS011;62601;51.044;13.788;2024-03-08T08:19:09;36.80;;;22.88;;
74245;SDS011;62601;51.044;13.788;2024-03-08T08:21:29;35.40;;;21.35;;
74245;SDS011;62601;51.044;13.788;2024-03-08T08:23:49;36.65;;;21.70;;
74245;SDS011;62601;51.044;13.788;2024-03-08T08:26:11;39.67;;;21.35;;
74245;SDS011;62601;51.044;13.788;2024-03-08T08:28:32;40.80;;;21.65;;
74245;SDS011;62601;51.044;13.788;2024-03-08T08:30:52;33.13;;;21.45;;
74245;SDS011;62601;51.044;13.788;2024-03-08T08:33:13;30.42;;;19.70;;
74245;SDS011;62601;51.044;13.788;2024-03-08T08:35:35;32.75;;;21.02;;
74245;SDS011;62601;51.044;13.788;2024-03-08T08:37:55;36.63;;;21.70;;
74245;SDS011;62601;51.044;13.788;2024-03-08T08:40:15;32.20;;;21.40;;
74245;SDS011;62601;51.044;13.788;2024-03-08T08:42:38;31.35;;;20.75;;
74245;SDS011;62601;51.044;13.788;2024-03-08T08:44:59;33.90;;;19.45;;
74245;SDS011;62601;51.044;13.788;2024-03-08T08:47:21;33.47;;;19.13;;
74245;SDS011;62601;51.044;13.788;2024-03-08T08:49:42;29.52;;;18.88;;
74245;SDS011;62601;51.044;13.788;2024-03-08T08:52:04;31.10;;;19.20;;
74245;SDS011;62601;51.044;13.788;2024-03-08T08:54:25;29.63;;;18.73;;
74245;SDS011;62601;51.044;13.788;2024-03-08T08:56:46;32.70;;;20.63;;
74245;SDS011;62601;51.044;13.788;2024-03-08T08:59:08;27.55;;;18.70;;
74245;SDS011;62601;51.044;13.788;2024-03-08T09:01:28;30.45;;;18.80;;
74245;SDS011;62601;51.044;13.788;2024-03-08T09:03:48;33.22;;;18.77;;
74245;SDS011;62601;51.044;13.788;2024-03-08T09:06:08;33.95;;;19.38;;
74245;SDS011;62601;51.044;13.788;2024-03-08T09:08:29;26.08;;;18.58;;
74245;SDS011;62601;51.044;13.788;2024-03-08T09:10:54;26.52;;;18.25;;
74245;SDS011;62601;51.044;13.788;2024-03-08T09:13:14;33.83;;;19.45;;
74245;SDS011;62601;51.044;13.788;2024-03-08T09:15:35;29.08;;;19.83;;
74245;SDS011;62601;51.044;13.788;2024-03-08T09:17:57;32.20;;;19.42;;
74245;SDS011;62601;51.044;13.788;2024-03-08T09:20:18;26.67;;;17.67;;
74245;SDS011;62601;51.044;13.788;2024-03-08T09:22:40;29.40;;;19.15;;
74245;SDS011;62601;51.044;13.788;2024-03-08T09:25:05;31.08;;;19.48;;
74245;SDS011;62601;51.044;13.788;2024-03-08T09:27:27;28.55;;;18.90;;
74245;SDS011;62601;51.044;13.788;2024-03-08T09:29:49;30.40;;;19.25;;
74245;SDS011;62601;51.044;13.788;2024-03-08T09:32:11;29.00;;;19.02;;
74245;SDS011;62601;51.044;13.788;2024-03-08T09:34:31;27.63;;;18.75;;
74245;SDS011;62601;51.044;13.788;2024-03-08T09:36:53;28.30;;;18.63;;
74245;SDS011;62601;51.044;13.788;2024-03-08T09:39:14;27.48;;;17.70;;
74245;SDS011;62601;51.044;13.788;2024-03-08T09:41:34;28.65;;;18.98;;
74245;SDS011;62601;51.044;13.788;2024-03-08T09:43:55;25.60;;;18.15;;
74245;SDS011;62601;51.044;13.788;2024-03-08T09:46:15;27.27;;;18.23;;
74245;SDS011;62601;51.044;13.788;2024-03-08T09:48:35;24.08;;;16.50;;
74245;SDS011;62601;51.044;13.788;2024-03-08T09:50:56;24.98;;;17.10;;
74245;SDS011;62601;51.044;13.788;2024-03-08T09:53:16;27.60;;;16.75;;
74245;SDS011;62601;51.044;13.788;2024-03-08T09:55:38;30.25;;;17.77;;
74245;SDS011;62601;51.044;13.788;2024-03-08T09:57:58;26.58;;;17.40;;
74245;SDS011;62601;51.044;13.788;2024-03-08T10:00:21;26.55;;;17.98;;
74245;SDS011;62601;51.044;13.788;2024-03-08T10:02:41;22.92;;;16.25;;
74245;SDS011;62601;51.044;13.788;2024-03-08T10:05:01;24.00;;;15.27;;
74245;SDS011;62601;51.044;13.788;2024-03-08T10:07:23;27.10;;;16.00;;
74245;SDS011;62601;51.044;13.788;2024-03-08T10:09:43;28.55;;;17.77;;
74245;SDS011;62601;51.044;13.788;2024-03-08T10:12:04;27.10;;;16.80;;
74245;SDS011;62601;51.044;13.788;2024-03-08T10:14:26;25.85;;;16.83;;
74245;SDS011;62601;51.044;13.788;2024-03-08T10:16:46;25.17;;;16.58;;
74245;SDS011;62601;51.044;13.788;2024-03-08T10:19:06;24.98;;;17.10;;
74245;SDS011;62601;51.044;13.788;2024-03-08T10:21:27;23.90;;;16.52;;
74245;SDS011;62601;51.044;13.788;2024-03-08T10:23:48;25.38;;;18.35;;
74245;SDS011;62601;51.044;13.788;2024-03-08T10:26:15;24.85;;;17.42;;
74245;SDS011;62601;51.044;13.788;2024-03-08T10:28:37;27.45;;;17.38;;
74245;SDS011;62601;51.044;13.788;2024-03-08T10:30:57;26.88;;;18.10;;
74245;SDS011;62601;51.044;13.788;2024-03-08T10:33:17;27.40;;;18.98;;
74245;SDS011;62601;51.044;13.788;2024-03-08T10:35:38;22.95;;;15.93;;
74245;SDS011;62601;51.044;13.788;2024-03-08T10:37:58;24.33;;;17.10;;
74245;SDS011;62601;51.044;13.788;2024-03-08T10:40:20;24.15;;;16.63;;
74245;SDS011;62601;51.044;13.788;2024-03-08T10:42:43;28.30;;;18.08;;
74245;SDS011;62601;51.044;13.788;2024-03-08T10:45:10;22.77;;;16.30;;
74245;SDS011;62601;51.044;13.788;2024-03-08T10:47:37;23.15;;;16.45;;
74245;SDS011;62601;51.044;13.788;2024-03-08T10:50:20;25.92;;;16.67;;
74245;SDS011;62601;51.044;13.788;2024-03-08T10:52:40;23.90;;;17.67;;
74245;SDS011;62601;51.044;13.788;2024-03-08T10:55:01;24.77;;;17.33;;
74245;SDS011;62601;51.044;13.788;2024-03-08T10:57:21;22.52;;;17.38;;
74245;SDS011;62601;51.044;13.788;2024-03-08T10:59:43;21.80;;;17.08;;
74245;SDS011;62601;51.044;13.788;2024-03-08T11:02:04;28.13;;;17.05;;
74245;SDS011;62601;51.044;13.788;2024-03-08T11:04:26;25.38;;;18.08;;
74245;SDS011;62601;51.044;13.788;2024-03-08T11:06:47;23.40;;;17.48;;
74245;SDS011;62601;51.044;13.788;2024-03-08T11:11:49;22.88;;;17.67;;
74245;SDS011;62601;51.044;13.788;2024-03-08T11:14:41;22.83;;;17.85;;
74245;SDS011;62601;51.044;13.788;2024-03-08T11:16:50;22.13;;;16.90;;
74245;SDS011;62601;51.044;13.788;2024-03-08T11:21:31;22.38;;;17.45;;
74245;SDS011;62601;51.044;13.788;2024-03-08T11:24:05;21.38;;;17.27;;
74245;SDS011;62601;51.044;13.788;2024-03-08T11:26:26;21.20;;;16.52;;
74245;SDS011;62601;51.044;13.788;2024-03-08T11:28:46;22.23;;;16.50;;
74245;SDS011;62601;51.044;13.788;2024-03-08T11:33:30;18.40;;;15.65;;
74245;SDS011;62601;51.044;13.788;2024-03-08T11:35:51;21.17;;;16.75;;
74245;SDS011;62601;51.044;13.788;2024-03-08T11:38:12;21.30;;;16.27;;
74245;SDS011;62601;51.044;13.788;2024-03-08T11:40:34;20.80;;;17.60;;
74245;SDS011;62601;51.044;13.788;2024-03-08T11:43:05;21.63;;;16.35;;
74245;SDS011;62601;51.044;13.788;2024-03-08T11:45:26;21.95;;;15.07;;
74245;SDS011;62601;51.044;13.788;2024-03-08T11:47:46;19.08;;;14.77;;
74245;SDS011;62601;51.044;13.788;2024-03-08T11:50:06;19.88;;;14.65;;
74245;SDS011;62601;51.044;13.788;2024-03-08T11:52:28;19.05;;;15.00;;
74245;SDS011;62601;51.044;13.788;2024-03-08T11:54:53;18.65;;;13.70;;
74245;SDS011;62601;51.044;13.788;2024-03-08T11:57:14;18.40;;;13.85;;
74245;SDS011;62601;51.044;13.788;2024-03-08T11:59:36;14.90;;;12.32;;
74245;SDS011;62601;51.044;13.788;2024-03-08T12:02:01;15.27;;;12.20;;
74245;SDS011;62601;51.044;13.788;2024-03-08T12:04:31;22.08;;;12.43;;
74245;SDS011;62601;51.044;13.788;2024-03-08T12:06:51;16.60;;;13.35;;
74245;SDS011;62601;51.044;13.788;2024-03-08T12:09:11;16.13;;;12.93;;
74245;SDS011;62601;51.044;13.788;2024-03-08T12:11:31;16.55;;;12.50;;
74245;SDS011;62601;51.044;13.788;2024-03-08T12:13:52;15.33;;;12.70;;
74245;SDS011;62601;51.044;13.788;2024-03-08T12:16:12;13.87;;;11.90;;
74245;SDS011;62601;51.044;13.788;2024-03-08T12:18:37;14.57;;;11.83;;
74245;SDS011;62601;51.044;13.788;2024-03-08T12:21:08;17.53;;;12.77;;
74245;SDS011;62601;51.044;13.788;2024-03-08T12:23:29;17.07;;;13.10;;
74245;SDS011;62601;51.044;13.788;2024-03-08T12:25:50;15.73;;;12.70;;
74245;SDS011;62601;51.044;13.788;2024-03-08T12:28:11;16.10;;;12.53;;
74245;SDS011;62601;51.044;13.788;2024-03-08T12:30:31;14.30;;;12.00;;
74245;SDS011;62601;51.044;13.788;2024-03-08T12:32:59;16.10;;;13.53;;
74245;SDS011;62601;51.044;13.788;2024-03-08T12:35:21;17.30;;;13.40;;
74245;SDS011;62601;51.044;13.788;2024-03-08T12:37:44;14.93;;;12.57;;
74245;SDS011;62601;51.044;13.788;2024-03-08T12:40:07;15.20;;;11.67;;
74245;SDS011;62601;51.044;13.788;2024-03-08T12:42:31;14.93;;;12.20;;
74245;SDS011;62601;51.044;13.788;2024-03-08T12:44:52;14.67;;;13.17;;
74245;SDS011;62601;51.044;13.788;2024-03-08T12:47:14;14.90;;;12.70;;
74245;SDS011;62601;51.044;13.788;2024-03-08T12:49:35;14.30;;;12.17;;
74245;SDS011;62601;51.044;13.788;2024-03-08T12:51:57;14.53;;;11.93;;
74245;SDS011;62601;51.044;13.788;2024-03-08T12:54:19;17.87;;;12.43;;
74245;SDS011;62601;51.044;13.788;2024-03-08T12:56:39;14.17;;;12.67;;
74245;SDS011;62601;51.044;13.788;2024-03-08T12:59:01;13.90;;;12.50;;
74245;SDS011;62601;51.044;13.788;2024-03-08T13:01:21;13.70;;;12.30;;
74245;SDS011;62601;51.044;13.788;2024-03-08T13:03:42;14.70;;;13.00;;
74245;SDS011;62601;51.044;13.788;2024-03-08T13:06:03;15.63;;;13.10;;
74245;SDS011;62601;51.044;13.788;2024-03-08T13:08:25;14.50;;;13.00;;
74245;SDS011;62601;51.044;13.788;2024-03-08T13:10:46;14.40;;;12.90;;
74245;SDS011;62601;51.044;13.788;2024-03-08T13:13:06;14.47;;;12.90;;
74245;SDS011;62601;51.044;13.788;2024-03-08T13:15:26;14.00;;;12.63;;
74245;SDS011;62601;51.044;13.788;2024-03-08T13:17:47;14.10;;;12.70;;
74245;SDS011;62601;51.044;13.788;2024-03-08T13:20:07;14.00;;;12.60;;
74245;SDS011;62601;51.044;13.788;2024-03-08T13:22:27;14.23;;;12.70;;
74245;SDS011;62601;51.044;13.788;2024-03-08T13:24:48;13.00;;;11.73;;
74245;SDS011;62601;51.044;13.788;2024-03-08T13:27:09;14.03;;;12.77;;
74245;SDS011;62601;51.044;13.788;2024-03-08T13:29:30;14.87;;;13.47;;
74245;SDS011;62601;51.044;13.788;2024-03-08T13:31:50;14.17;;;12.77;;
74245;SDS011;62601;51.044;13.788;2024-03-08T13:34:11;13.87;;;12.47;;
74245;SDS011;62601;51.044;13.788;2024-03-08T13:36:34;14.17;;;12.77;;
74245;SDS011;62601;51.044;13.788;2024-03-08T13:38:56;12.33;;;11.23;;
74245;SDS011;62601;51.044;13.788;2024-03-08T13:41:17;14.10;;;12.70;;